sensor_id;sensor_type;location;lat;lon;timestamp;temperature;humidity
24252;DHT22;12380;51.118;4.176;2023-05-10T00:00:08;13.10;99.90
24252;DHT22;12380;51.118;4.176;2023-05-10T00:02:36;13.00;99.90
24252;DHT22;12380;51.118;4.176;2023-05-10T00:05:02;13.10;99.90
24252;DHT22;12380;51.118;4.176;2023-05-10T00:07:28;13.10;99.90
24252;DHT22;12380;51.118;4.176;2023-05-10T00:09:53;13.10;99.90
24252;DHT22;12380;51.118;4.176;2023-05-10T00:12:19;13.10;99.90
24252;DHT22;12380;51.118;4.176;2023-05-10T00:14:44;13.30;99.90
24252;DHT22;12380;51.118;4.176;2023-05-10T00:17:10;13.20;99.90
24252;DHT22;12380;51.118;4.176;2023-05-10T00:19:36;13.10;99.90
24252;DHT22;12380;51.118;4.176;2023-05-10T00:22:01;13.20;99.90
24252;DHT22;12380;51.118;4.176;2023-05-10T00:24:27;13.20;99.90
24252;DHT22;12380;51.118;4.176;2023-05-10T00:26:52;13.10;99.90
24252;DHT22;12380;51.118;4.176;2023-05-10T00:29:19;13.10;99.90
24252;DHT22;12380;51.118;4.176;2023-05-10T00:31:45;13.20;99.90
24252;DHT22;12380;51.118;4.176;2023-05-10T00:34:10;13.30;99.90
24252;DHT22;12380;51.118;4.176;2023-05-10T00:36:36;13.30;99.90
24252;DHT22;12380;51.118;4.176;2023-05-10T00:39:02;13.20;99.90
24252;DHT22;12380;51.118;4.176;2023-05-10T00:41:29;13.20;99.90
24252;DHT22;12380;51.118;4.176;2023-05-10T00:43:58;13.20;99.90
24252;DHT22;12380;51.118;4.176;2023-05-10T00:46:23;13.10;99.90
24252;DHT22;12380;51.118;4.176;2023-05-10T00:48:50;13.00;99.90
24252;DHT22;12380;51.118;4.176;2023-05-10T00:51:15;13.00;99.90
24252;DHT22;12380;51.118;4.176;2023-05-10T00:53:41;12.90;99.90
24252;DHT22;12380;51.118;4.176;2023-05-10T00:56:06;12.80;99.90
24252;DHT22;12380;51.118;4.176;2023-05-10T00:58:32;12.90;99.90
24252;DHT22;12380;51.118;4.176;2023-05-10T01:00:58;13.00;99.90
24252;DHT22;12380;51.118;4.176;2023-05-10T01:03:25;13.00;99.90
24252;DHT22;12380;51.118;4.176;2023-05-10T01:05:50;13.00;99.90
24252;DHT22;12380;51.118;4.176;2023-05-10T01:08:16;13.00;99.90
24252;DHT22;12380;51.118;4.176;2023-05-10T01:10:42;13.00;99.90
24252;DHT22;12380;51.118;4.176;2023-05-10T01:13:10;13.00;99.90
24252;DHT22;12380;51.118;4.176;2023-05-10T01:15:37;12.90;99.90
24252;DHT22;12380;51.118;4.176;2023-05-10T01:18:03;12.80;99.90
24252;DHT22;12380;51.118;4.176;2023-05-10T01:20:34;12.80;99.90
24252;DHT22;12380;51.118;4.176;2023-05-10T01:33:52;12.80;99.90
24252;DHT22;12380;51.118;4.176;2023-05-10T01:39:02;12.90;99.90
24252;DHT22;12380;51.118;4.176;2023-05-10T01:43:58;12.90;99.90
24252;DHT22;12380;51.118;4.176;2023-05-10T01:46:33;12.90;99.90
24252;DHT22;12380;51.118;4.176;2023-05-10T01:49:00;12.90;99.90
24252;DHT22;12380;51.118;4.176;2023-05-10T01:51:29;13.00;99.90
24252;DHT22;12380;51.118;4.176;2023-05-10T01:54:00;13.10;99.90
24252;DHT22;12380;51.118;4.176;2023-05-10T01:56:27;13.00;99.90
24252;DHT22;12380;51.118;4.176;2023-05-10T01:58:53;13.00;99.90
24252;DHT22;12380;51.118;4.176;2023-05-10T02:01:20;12.90;99.90
24252;DHT22;12380;51.118;4.176;2023-05-10T02:03:46;12.90;99.90
24252;DHT22;12380;51.118;4.176;2023-05-10T02:06:13;13.00;99.90
24252;DHT22;12380;51.118;4.176;2023-05-10T02:08:40;13.00;99.90
24252;DHT22;12380;51.118;4.176;2023-05-10T02:11:06;13.10;99.90
24252;DHT22;12380;51.118;4.176;2023-05-10T02:13:40;13.10;99.90
24252;DHT22;12380;51.118;4.176;2023-05-10T02:16:07;13.10;99.90
24252;DHT22;12380;51.118;4.176;2023-05-10T02:18:33;13.20;99.90
24252;DHT22;12380;51.118;4.176;2023-05-10T02:21:01;13.10;99.90
24252;DHT22;12380;51.118;4.176;2023-05-10T02:23:27;13.20;99.90
24252;DHT22;12380;51.118;4.176;2023-05-10T02:25:53;13.10;99.90
24252;DHT22;12380;51.118;4.176;2023-05-10T02:28:20;13.20;99.90
24252;DHT22;12380;51.118;4.176;2023-05-10T02:30:46;13.10;99.90
24252;DHT22;12380;51.118;4.176;2023-05-10T02:33:12;13.00;99.90
24252;DHT22;12380;51.118;4.176;2023-05-10T02:35:41;12.90;99.90
24252;DHT22;12380;51.118;4.176;2023-05-10T02:38:07;12.90;99.90
24252;DHT22;12380;51.118;4.176;2023-05-10T02:40:33;12.90;99.90
24252;DHT22;12380;51.118;4.176;2023-05-10T02:43:01;12.80;99.90
24252;DHT22;12380;51.118;4.176;2023-05-10T02:45:29;12.70;99.90
24252;DHT22;12380;51.118;4.176;2023-05-10T02:47:55;12.70;99.90
24252;DHT22;12380;51.118;4.176;2023-05-10T02:50:22;12.90;99.90
24252;DHT22;12380;51.118;4.176;2023-05-10T02:52:49;12.90;99.90
24252;DHT22;12380;51.118;4.176;2023-05-10T02:55:17;12.90;99.90
24252;DHT22;12380;51.118;4.176;2023-05-10T02:57:59;13.00;99.90
24252;DHT22;12380;51.118;4.176;2023-05-10T03:00:25;13.00;99.90
24252;DHT22;12380;51.118;4.176;2023-05-10T03:02:51;13.00;99.90
24252;DHT22;12380;51.118;4.176;2023-05-10T03:05:16;13.00;99.90
24252;DHT22;12380;51.118;4.176;2023-05-10T03:07:42;13.00;99.90
24252;DHT22;12380;51.118;4.176;2023-05-10T03:10:08;13.00;99.90
24252;DHT22;12380;51.118;4.176;2023-05-10T03:15:24;12.90;99.90
24252;DHT22;12380;51.118;4.176;2023-05-10T03:20:51;12.60;99.90
24252;DHT22;12380;51.118;4.176;2023-05-10T03:26:07;12.60;99.90
24252;DHT22;12380;51.118;4.176;2023-05-10T03:28:33;12.60;99.90
24252;DHT22;12380;51.118;4.176;2023-05-10T03:31:00;12.60;99.90
24252;DHT22;12380;51.118;4.176;2023-05-10T03:33:25;12.60;99.90
24252;DHT22;12380;51.118;4.176;2023-05-10T03:35:53;12.60;99.90
24252;DHT22;12380;51.118;4.176;2023-05-10T03:38:22;12.70;99.90
24252;DHT22;12380;51.118;4.176;2023-05-10T03:40:47;12.70;99.90
24252;DHT22;12380;51.118;4.176;2023-05-10T03:43:13;12.80;99.90
24252;DHT22;12380;51.118;4.176;2023-05-10T03:45:38;12.90;99.90
24252;DHT22;12380;51.118;4.176;2023-05-10T03:48:05;13.00;99.90
24252;DHT22;12380;51.118;4.176;2023-05-10T03:50:33;12.90;99.90
24252;DHT22;12380;51.118;4.176;2023-05-10T03:52:58;12.90;99.90
24252;DHT22;12380;51.118;4.176;2023-05-10T03:55:24;12.90;99.90
24252;DHT22;12380;51.118;4.176;2023-05-10T03:57:49;12.80;99.90
24252;DHT22;12380;51.118;4.176;2023-05-10T04:00:18;12.70;99.90
24252;DHT22;12380;51.118;4.176;2023-05-10T04:02:43;12.70;99.90
24252;DHT22;12380;51.118;4.176;2023-05-10T04:05:09;12.70;99.90
24252;DHT22;12380;51.118;4.176;2023-05-10T04:07:35;12.80;99.90
24252;DHT22;12380;51.118;4.176;2023-05-10T04:10:00;12.80;99.90
24252;DHT22;12380;51.118;4.176;2023-05-10T04:12:26;12.80;99.90
24252;DHT22;12380;51.118;4.176;2023-05-10T04:14:54;12.80;99.90
24252;DHT22;12380;51.118;4.176;2023-05-10T04:17:20;12.90;99.90
24252;DHT22;12380;51.118;4.176;2023-05-10T04:19:45;13.00;99.90
24252;DHT22;12380;51.118;4.176;2023-05-10T04:22:11;13.00;99.90
24252;DHT22;12380;51.118;4.176;2023-05-10T04:24:36;13.00;99.90
24252;DHT22;12380;51.118;4.176;2023-05-10T04:27:02;13.00;99.90
24252;DHT22;12380;51.118;4.176;2023-05-10T04:29:28;12.90;99.90
24252;DHT22;12380;51.118;4.176;2023-05-10T04:31:54;13.00;99.90
24252;DHT22;12380;51.118;4.176;2023-05-10T04:34:20;12.80;99.90
24252;DHT22;12380;51.118;4.176;2023-05-10T04:36:45;12.80;99.90
24252;DHT22;12380;51.118;4.176;2023-05-10T04:39:11;12.80;99.90
24252;DHT22;12380;51.118;4.176;2023-05-10T04:41:37;12.90;99.90
24252;DHT22;12380;51.118;4.176;2023-05-10T04:44:03;12.90;99.90
24252;DHT22;12380;51.118;4.176;2023-05-10T04:46:29;13.00;99.90
24252;DHT22;12380;51.118;4.176;2023-05-10T04:48:54;12.90;99.90
24252;DHT22;12380;51.118;4.176;2023-05-10T04:51:20;13.00;99.90
24252;DHT22;12380;51.118;4.176;2023-05-10T04:53:45;12.80;99.90
24252;DHT22;12380;51.118;4.176;2023-05-10T04:56:11;12.90;99.90
24252;DHT22;12380;51.118;4.176;2023-05-10T04:58:39;12.90;99.90
24252;DHT22;12380;51.118;4.176;2023-05-10T05:01:05;13.00;99.90
24252;DHT22;12380;51.118;4.176;2023-05-10T05:03:32;13.10;99.90
24252;DHT22;12380;51.118;4.176;2023-05-10T05:05:57;13.20;99.90
24252;DHT22;12380;51.118;4.176;2023-05-10T05:08:23;13.20;99.90
24252;DHT22;12380;51.118;4.176;2023-05-10T05:10:52;13.10;99.90
24252;DHT22;12380;51.118;4.176;2023-05-10T05:13:17;13.20;99.90
24252;DHT22;12380;51.118;4.176;2023-05-10T05:15:43;13.20;99.90
24252;DHT22;12380;51.118;4.176;2023-05-10T05:18:11;13.10;99.90
24252;DHT22;12380;51.118;4.176;2023-05-10T05:20:37;13.20;99.90
24252;DHT22;12380;51.118;4.176;2023-05-10T05:23:02;13.30;99.90
24252;DHT22;12380;51.118;4.176;2023-05-10T05:25:28;13.40;99.90
24252;DHT22;12380;51.118;4.176;2023-05-10T05:27:56;13.40;99.90
24252;DHT22;12380;51.118;4.176;2023-05-10T05:30:22;13.60;99.90
24252;DHT22;12380;51.118;4.176;2023-05-10T05:32:48;13.50;99.90
24252;DHT22;12380;51.118;4.176;2023-05-10T05:35:13;13.40;99.90
24252;DHT22;12380;51.118;4.176;2023-05-10T05:37:39;13.40;99.90
24252;DHT22;12380;51.118;4.176;2023-05-10T05:40:04;13.40;99.90
24252;DHT22;12380;51.118;4.176;2023-05-10T05:42:30;13.70;99.90
24252;DHT22;12380;51.118;4.176;2023-05-10T05:44:56;13.60;99.90
24252;DHT22;12380;51.118;4.176;2023-05-10T05:47:21;13.70;99.90
24252;DHT22;12380;51.118;4.176;2023-05-10T05:49:47;13.90;99.90
24252;DHT22;12380;51.118;4.176;2023-05-10T05:52:13;13.90;99.90
24252;DHT22;12380;51.118;4.176;2023-05-10T05:54:38;13.90;99.90
24252;DHT22;12380;51.118;4.176;2023-05-10T05:57:04;13.90;99.90
24252;DHT22;12380;51.118;4.176;2023-05-10T05:59:29;13.90;99.90
24252;DHT22;12380;51.118;4.176;2023-05-10T06:01:55;13.70;99.90
24252;DHT22;12380;51.118;4.176;2023-05-10T06:04:20;13.70;99.90
24252;DHT22;12380;51.118;4.176;2023-05-10T06:06:46;13.80;99.90
24252;DHT22;12380;51.118;4.176;2023-05-10T06:09:12;13.80;99.90
24252;DHT22;12380;51.118;4.176;2023-05-10T06:11:40;13.90;99.90
24252;DHT22;12380;51.118;4.176;2023-05-10T06:14:05;13.90;99.90
24252;DHT22;12380;51.118;4.176;2023-05-10T06:16:32;14.00;99.90
24252;DHT22;12380;51.118;4.176;2023-05-10T06:19:00;14.00;99.90
24252;DHT22;12380;51.118;4.176;2023-05-10T06:21:26;14.00;99.90
24252;DHT22;12380;51.118;4.176;2023-05-10T06:23:51;14.10;99.90
24252;DHT22;12380;51.118;4.176;2023-05-10T06:26:20;14.10;99.90
24252;DHT22;12380;51.118;4.176;2023-05-10T06:28:46;13.90;99.90
24252;DHT22;12380;51.118;4.176;2023-05-10T06:31:11;13.70;99.90
24252;DHT22;12380;51.118;4.176;2023-05-10T06:33:39;13.70;99.90
24252;DHT22;12380;51.118;4.176;2023-05-10T06:36:05;13.90;99.90
24252;DHT22;12380;51.118;4.176;2023-05-10T06:38:33;13.70;99.90
24252;DHT22;12380;51.118;4.176;2023-05-10T06:40:59;13.60;99.90
24252;DHT22;12380;51.118;4.176;2023-05-10T06:43:25;13.60;99.90
24252;DHT22;12380;51.118;4.176;2023-05-10T06:45:53;13.70;99.90
24252;DHT22;12380;51.118;4.176;2023-05-10T06:48:19;13.70;99.90
24252;DHT22;12380;51.118;4.176;2023-05-10T06:50:45;13.90;99.90
24252;DHT22;12380;51.118;4.176;2023-05-10T06:53:10;14.10;99.90
24252;DHT22;12380;51.118;4.176;2023-05-10T06:55:37;14.10;99.90
24252;DHT22;12380;51.118;4.176;2023-05-10T06:58:02;14.20;99.90
24252;DHT22;12380;51.118;4.176;2023-05-10T07:00:28;14.50;99.90
24252;DHT22;12380;51.118;4.176;2023-05-10T07:02:54;14.60;99.90
24252;DHT22;12380;51.118;4.176;2023-05-10T07:05:20;14.70;99.90
24252;DHT22;12380;51.118;4.176;2023-05-10T07:07:46;14.70;99.90
24252;DHT22;12380;51.118;4.176;2023-05-10T07:10:11;14.90;99.90
24252;DHT22;12380;51.118;4.176;2023-05-10T07:12:37;15.00;99.90
24252;DHT22;12380;51.118;4.176;2023-05-10T07:15:03;15.20;99.90
24252;DHT22;12380;51.118;4.176;2023-05-10T07:17:29;15.20;99.90
24252;DHT22;12380;51.118;4.176;2023-05-10T07:19:57;15.10;99.90
24252;DHT22;12380;51.118;4.176;2023-05-10T07:22:23;15.00;99.90
24252;DHT22;12380;51.118;4.176;2023-05-10T07:24:51;15.00;99.90
24252;DHT22;12380;51.118;4.176;2023-05-10T07:27:17;15.20;99.90
24252;DHT22;12380;51.118;4.176;2023-05-10T07:29:42;15.20;99.90
24252;DHT22;12380;51.118;4.176;2023-05-10T07:32:08;15.10;99.90
24252;DHT22;12380;51.118;4.176;2023-05-10T07:34:33;15.10;99.90
24252;DHT22;12380;51.118;4.176;2023-05-10T07:36:59;15.20;99.90
24252;DHT22;12380;51.118;4.176;2023-05-10T07:39:25;15.60;99.90
24252;DHT22;12380;51.118;4.176;2023-05-10T07:41:51;16.30;99.90
24252;DHT22;12380;51.118;4.176;2023-05-10T07:44:17;16.60;99.90
24252;DHT22;12380;51.118;4.176;2023-05-10T07:46:44;16.50;99.90
24252;DHT22;12380;51.118;4.176;2023-05-10T07:49:09;16.80;99.90
24252;DHT22;12380;51.118;4.176;2023-05-10T07:51:35;16.40;99.90
24252;DHT22;12380;51.118;4.176;2023-05-10T07:54:01;15.90;99.90
24252;DHT22;12380;51.118;4.176;2023-05-10T07:56:30;15.90;99.90
24252;DHT22;12380;51.118;4.176;2023-05-10T07:58:57;15.70;99.90
24252;DHT22;12380;51.118;4.176;2023-05-10T08:01:23;16.40;99.90
24252;DHT22;12380;51.118;4.176;2023-05-10T08:03:51;16.90;99.90
24252;DHT22;12380;51.118;4.176;2023-05-10T08:06:19;17.50;99.90
24252;DHT22;12380;51.118;4.176;2023-05-10T08:08:48;17.70;99.90
24252;DHT22;12380;51.118;4.176;2023-05-10T08:11:17;17.20;99.90
24252;DHT22;12380;51.118;4.176;2023-05-10T08:13:43;16.70;99.90
24252;DHT22;12380;51.118;4.176;2023-05-10T08:16:09;16.60;99.90
24252;DHT22;12380;51.118;4.176;2023-05-10T08:18:37;16.60;99.90
24252;DHT22;12380;51.118;4.176;2023-05-10T08:21:03;16.90;99.90
24252;DHT22;12380;51.118;4.176;2023-05-10T08:23:31;17.10;99.90
24252;DHT22;12380;51.118;4.176;2023-05-10T08:25:59;17.00;99.90
24252;DHT22;12380;51.118;4.176;2023-05-10T08:28:25;17.20;99.90
24252;DHT22;12380;51.118;4.176;2023-05-10T08:30:52;17.60;99.90
24252;DHT22;12380;51.118;4.176;2023-05-10T08:33:18;17.10;99.90
24252;DHT22;12380;51.118;4.176;2023-05-10T08:35:44;16.90;99.90
24252;DHT22;12380;51.118;4.176;2023-05-10T08:38:14;16.90;99.90
24252;DHT22;12380;51.118;4.176;2023-05-10T08:40:41;16.80;99.90
24252;DHT22;12380;51.118;4.176;2023-05-10T08:43:09;16.80;99.90
24252;DHT22;12380;51.118;4.176;2023-05-10T08:45:39;16.60;99.90
24252;DHT22;12380;51.118;4.176;2023-05-10T08:48:06;16.00;99.90
24252;DHT22;12380;51.118;4.176;2023-05-10T08:50:33;15.70;99.90
24252;DHT22;12380;51.118;4.176;2023-05-10T08:53:00;15.50;99.90
24252;DHT22;12380;51.118;4.176;2023-05-10T08:55:26;15.10;99.90
24252;DHT22;12380;51.118;4.176;2023-05-10T08:57:52;15.00;99.90
24252;DHT22;12380;51.118;4.176;2023-05-10T09:00:20;15.10;99.90
24252;DHT22;12380;51.118;4.176;2023-05-10T09:02:48;15.10;99.90
24252;DHT22;12380;51.118;4.176;2023-05-10T09:05:16;14.90;99.90
24252;DHT22;12380;51.118;4.176;2023-05-10T09:07:42;14.30;99.90
24252;DHT22;12380;51.118;4.176;2023-05-10T09:10:08;14.20;99.90
24252;DHT22;12380;51.118;4.176;2023-05-10T09:12:34;14.40;99.90
24252;DHT22;12380;51.118;4.176;2023-05-10T09:15:00;14.20;99.90
24252;DHT22;12380;51.118;4.176;2023-05-10T09:17:26;14.30;99.90
24252;DHT22;12380;51.118;4.176;2023-05-10T09:19:59;14.30;99.90
24252;DHT22;12380;51.118;4.176;2023-05-10T09:22:25;14.40;99.90
24252;DHT22;12380;51.118;4.176;2023-05-10T09:25:07;14.60;99.90
24252;DHT22;12380;51.118;4.176;2023-05-10T09:27:33;14.90;99.90
24252;DHT22;12380;51.118;4.176;2023-05-10T09:29:59;15.20;99.90
24252;DHT22;12380;51.118;4.176;2023-05-10T09:32:40;15.50;99.90
24252;DHT22;12380;51.118;4.176;2023-05-10T09:35:10;15.80;99.90
24252;DHT22;12380;51.118;4.176;2023-05-10T09:37:36;16.00;99.90
24252;DHT22;12380;51.118;4.176;2023-05-10T09:40:05;16.00;99.90
24252;DHT22;12380;51.118;4.176;2023-05-10T09:42:33;16.10;99.90
24252;DHT22;12380;51.118;4.176;2023-05-10T09:45:04;15.80;99.90
24252;DHT22;12380;51.118;4.176;2023-05-10T09:47:34;15.60;99.90
24252;DHT22;12380;51.118;4.176;2023-05-10T09:50:00;15.70;99.90
24252;DHT22;12380;51.118;4.176;2023-05-10T09:52:31;15.70;99.90
24252;DHT22;12380;51.118;4.176;2023-05-10T09:55:10;16.00;99.90
24252;DHT22;12380;51.118;4.176;2023-05-10T09:57:36;16.50;99.90
24252;DHT22;12380;51.118;4.176;2023-05-10T10:00:01;16.50;99.90
24252;DHT22;12380;51.118;4.176;2023-05-10T10:02:30;16.10;99.90
24252;DHT22;12380;51.118;4.176;2023-05-10T10:04:56;16.00;99.90
24252;DHT22;12380;51.118;4.176;2023-05-10T10:07:22;16.40;99.90
24252;DHT22;12380;51.118;4.176;2023-05-10T10:09:49;16.20;99.90
24252;DHT22;12380;51.118;4.176;2023-05-10T10:12:14;16.20;99.90
24252;DHT22;12380;51.118;4.176;2023-05-10T10:14:40;16.30;99.90
24252;DHT22;12380;51.118;4.176;2023-05-10T10:17:06;16.20;99.90
24252;DHT22;12380;51.118;4.176;2023-05-10T10:19:35;16.30;99.90
24252;DHT22;12380;51.118;4.176;2023-05-10T10:22:00;16.50;99.90
24252;DHT22;12380;51.118;4.176;2023-05-10T10:24:26;16.70;99.90
24252;DHT22;12380;51.118;4.176;2023-05-10T10:26:55;16.70;99.90
24252;DHT22;12380;51.118;4.176;2023-05-10T10:32:09;16.30;99.90
24252;DHT22;12380;51.118;4.176;2023-05-10T10:34:39;16.80;99.90
24252;DHT22;12380;51.118;4.176;2023-05-10T10:37:05;16.90;99.90
24252;DHT22;12380;51.118;4.176;2023-05-10T10:39:31;16.80;99.90
24252;DHT22;12380;51.118;4.176;2023-05-10T10:41:58;16.90;99.90
24252;DHT22;12380;51.118;4.176;2023-05-10T10:55:02;16.30;99.90
24252;DHT22;12380;51.118;4.176;2023-05-10T10:57:33;16.40;99.90
24252;DHT22;12380;51.118;4.176;2023-05-10T11:07:56;16.50;99.90
24252;DHT22;12380;51.118;4.176;2023-05-10T11:10:22;16.20;99.90
24252;DHT22;12380;51.118;4.176;2023-05-10T11:12:51;16.20;99.90
24252;DHT22;12380;51.118;4.176;2023-05-10T11:15:16;16.10;99.90
24252;DHT22;12380;51.118;4.176;2023-05-10T11:17:42;16.60;99.90
24252;DHT22;12380;51.118;4.176;2023-05-10T11:22:53;16.50;99.90
24252;DHT22;12380;51.118;4.176;2023-05-10T11:25:18;16.50;99.90
24252;DHT22;12380;51.118;4.176;2023-05-10T11:27:44;16.50;99.90
24252;DHT22;12380;51.118;4.176;2023-05-10T11:30:10;16.40;99.90
24252;DHT22;12380;51.118;4.176;2023-05-10T11:32:40;16.30;99.90
24252;DHT22;12380;51.118;4.176;2023-05-10T11:35:08;16.40;99.90
24252;DHT22;12380;51.118;4.176;2023-05-10T11:37:34;16.80;99.90
24252;DHT22;12380;51.118;4.176;2023-05-10T11:40:02;17.10;99.90
24252;DHT22;12380;51.118;4.176;2023-05-10T11:42:28;17.40;99.90
24252;DHT22;12380;51.118;4.176;2023-05-10T11:44:54;17.30;99.90
24252;DHT22;12380;51.118;4.176;2023-05-10T11:47:20;17.40;99.90
24252;DHT22;12380;51.118;4.176;2023-05-10T11:49:46;17.50;99.90
24252;DHT22;12380;51.118;4.176;2023-05-10T11:52:11;17.10;99.90
24252;DHT22;12380;51.118;4.176;2023-05-10T11:54:37;16.90;99.90
24252;DHT22;12380;51.118;4.176;2023-05-10T11:57:03;16.80;99.90
24252;DHT22;12380;51.118;4.176;2023-05-10T11:59:28;17.20;99.90
24252;DHT22;12380;51.118;4.176;2023-05-10T12:01:54;17.20;99.90
24252;DHT22;12380;51.118;4.176;2023-05-10T12:04:20;17.20;99.90
24252;DHT22;12380;51.118;4.176;2023-05-10T12:06:46;17.00;99.90
24252;DHT22;12380;51.118;4.176;2023-05-10T12:09:11;17.30;99.90
24252;DHT22;12380;51.118;4.176;2023-05-10T12:11:38;16.80;99.90
24252;DHT22;12380;51.118;4.176;2023-05-10T12:14:05;16.90;99.90
24252;DHT22;12380;51.118;4.176;2023-05-10T12:16:31;16.80;99.90
24252;DHT22;12380;51.118;4.176;2023-05-10T12:18:57;16.40;99.90
24252;DHT22;12380;51.118;4.176;2023-05-10T12:21:23;16.60;99.90
24252;DHT22;12380;51.118;4.176;2023-05-10T12:23:53;16.50;99.90
24252;DHT22;12380;51.118;4.176;2023-05-10T12:26:21;16.80;99.90
24252;DHT22;12380;51.118;4.176;2023-05-10T12:28:47;16.80;99.90
24252;DHT22;12380;51.118;4.176;2023-05-10T12:31:12;16.70;99.90
24252;DHT22;12380;51.118;4.176;2023-05-10T12:33:44;16.70;99.90
24252;DHT22;12380;51.118;4.176;2023-05-10T12:36:11;16.60;99.90
24252;DHT22;12380;51.118;4.176;2023-05-10T12:38:37;16.70;99.90
24252;DHT22;12380;51.118;4.176;2023-05-10T12:41:04;16.70;99.90
24252;DHT22;12380;51.118;4.176;2023-05-10T12:43:33;16.70;99.90
24252;DHT22;12380;51.118;4.176;2023-05-10T12:46:03;16.50;99.90
24252;DHT22;12380;51.118;4.176;2023-05-10T12:48:29;16.40;99.90
24252;DHT22;12380;51.118;4.176;2023-05-10T12:50:56;16.30;99.90
24252;DHT22;12380;51.118;4.176;2023-05-10T12:53:22;16.30;99.90
24252;DHT22;12380;51.118;4.176;2023-05-10T12:55:47;16.20;99.90
24252;DHT22;12380;51.118;4.176;2023-05-10T12:58:13;16.10;99.90
24252;DHT22;12380;51.118;4.176;2023-05-10T13:00:39;16.10;99.90
24252;DHT22;12380;51.118;4.176;2023-05-10T13:03:05;16.10;99.90
24252;DHT22;12380;51.118;4.176;2023-05-10T13:05:33;16.20;99.90
24252;DHT22;12380;51.118;4.176;2023-05-10T13:08:01;16.20;99.90
24252;DHT22;12380;51.118;4.176;2023-05-10T13:10:29;16.30;99.90
24252;DHT22;12380;51.118;4.176;2023-05-10T13:12:54;16.30;99.90
24252;DHT22;12380;51.118;4.176;2023-05-10T13:15:20;16.50;99.90
24252;DHT22;12380;51.118;4.176;2023-05-10T13:17:46;16.40;99.90
24252;DHT22;12380;51.118;4.176;2023-05-10T13:20:11;16.30;99.90
24252;DHT22;12380;51.118;4.176;2023-05-10T13:22:40;16.50;99.90
24252;DHT22;12380;51.118;4.176;2023-05-10T13:25:06;16.60;99.90
24252;DHT22;12380;51.118;4.176;2023-05-10T13:27:31;16.50;99.90
24252;DHT22;12380;51.118;4.176;2023-05-10T13:29:57;16.60;99.90
24252;DHT22;12380;51.118;4.176;2023-05-10T13:32:24;16.30;99.90
24252;DHT22;12380;51.118;4.176;2023-05-10T13:34:50;16.40;99.90
24252;DHT22;12380;51.118;4.176;2023-05-10T13:37:16;16.40;99.90
24252;DHT22;12380;51.118;4.176;2023-05-10T13:39:42;16.60;99.90
24252;DHT22;12380;51.118;4.176;2023-05-10T13:42:07;16.50;99.90
24252;DHT22;12380;51.118;4.176;2023-05-10T13:44:35;16.70;99.90
24252;DHT22;12380;51.118;4.176;2023-05-10T13:47:03;16.70;99.90
24252;DHT22;12380;51.118;4.176;2023-05-10T13:49:31;16.70;99.90
24252;DHT22;12380;51.118;4.176;2023-05-10T13:51:57;16.90;99.90
24252;DHT22;12380;51.118;4.176;2023-05-10T13:54:23;17.10;99.90
24252;DHT22;12380;51.118;4.176;2023-05-10T13:56:49;17.40;99.90
24252;DHT22;12380;51.118;4.176;2023-05-10T13:59:14;17.40;99.90
24252;DHT22;12380;51.118;4.176;2023-05-10T14:01:40;17.10;99.90
24252;DHT22;12380;51.118;4.176;2023-05-10T14:04:09;17.10;99.90
24252;DHT22;12380;51.118;4.176;2023-05-10T14:06:35;17.00;99.90
24252;DHT22;12380;51.118;4.176;2023-05-10T14:09:02;17.00;99.90
24252;DHT22;12380;51.118;4.176;2023-05-10T14:11:27;16.70;99.90
24252;DHT22;12380;51.118;4.176;2023-05-10T14:13:53;16.80;99.90
24252;DHT22;12380;51.118;4.176;2023-05-10T14:16:19;16.90;99.90
24252;DHT22;12380;51.118;4.176;2023-05-10T14:18:45;16.80;99.90
24252;DHT22;12380;51.118;4.176;2023-05-10T14:21:11;15.80;99.90
24252;DHT22;12380;51.118;4.176;2023-05-10T14:23:37;15.80;99.90
24252;DHT22;12380;51.118;4.176;2023-05-10T14:26:05;15.30;99.90
24252;DHT22;12380;51.118;4.176;2023-05-10T14:28:31;14.70;99.90
24252;DHT22;12380;51.118;4.176;2023-05-10T14:30:57;14.40;99.90
24252;DHT22;12380;51.118;4.176;2023-05-10T14:33:26;14.00;99.90
24252;DHT22;12380;51.118;4.176;2023-05-10T14:35:51;13.80;99.90
24252;DHT22;12380;51.118;4.176;2023-05-10T14:38:17;13.90;99.90
24252;DHT22;12380;51.118;4.176;2023-05-10T14:40:43;13.90;99.90
24252;DHT22;12380;51.118;4.176;2023-05-10T14:43:11;13.90;99.90
24252;DHT22;12380;51.118;4.176;2023-05-10T14:45:39;13.90;99.90
24252;DHT22;12380;51.118;4.176;2023-05-10T14:48:05;14.00;99.90
24252;DHT22;12380;51.118;4.176;2023-05-10T14:50:31;14.10;99.90
24252;DHT22;12380;51.118;4.176;2023-05-10T14:52:57;14.30;99.90
24252;DHT22;12380;51.118;4.176;2023-05-10T14:55:24;14.50;99.90
24252;DHT22;12380;51.118;4.176;2023-05-10T14:57:51;14.60;99.90
24252;DHT22;12380;51.118;4.176;2023-05-10T15:00:17;14.60;99.90
24252;DHT22;12380;51.118;4.176;2023-05-10T15:02:44;14.70;99.90
24252;DHT22;12380;51.118;4.176;2023-05-10T15:05:10;14.90;99.90
24252;DHT22;12380;51.118;4.176;2023-05-10T15:07:35;15.10;99.90
24252;DHT22;12380;51.118;4.176;2023-05-10T15:10:01;15.10;99.90
24252;DHT22;12380;51.118;4.176;2023-05-10T15:12:27;15.20;99.90
24252;DHT22;12380;51.118;4.176;2023-05-10T15:14:53;15.20;99.90
24252;DHT22;12380;51.118;4.176;2023-05-10T15:17:18;15.30;99.90
24252;DHT22;12380;51.118;4.176;2023-05-10T15:19:44;15.40;99.90
24252;DHT22;12380;51.118;4.176;2023-05-10T15:22:12;15.40;99.90
24252;DHT22;12380;51.118;4.176;2023-05-10T15:24:37;15.20;99.90
24252;DHT22;12380;51.118;4.176;2023-05-10T15:27:10;15.10;99.90
24252;DHT22;12380;51.118;4.176;2023-05-10T15:29:36;15.10;99.90
24252;DHT22;12380;51.118;4.176;2023-05-10T15:32:04;15.00;99.90
24252;DHT22;12380;51.118;4.176;2023-05-10T15:34:30;14.90;99.90
24252;DHT22;12380;51.118;4.176;2023-05-10T15:36:56;15.10;99.90
24252;DHT22;12380;51.118;4.176;2023-05-10T15:39:22;15.20;99.90
24252;DHT22;12380;51.118;4.176;2023-05-10T15:41:47;15.00;99.90
24252;DHT22;12380;51.118;4.176;2023-05-10T15:44:14;14.90;99.90
24252;DHT22;12380;51.118;4.176;2023-05-10T15:46:39;14.80;99.90
24252;DHT22;12380;51.118;4.176;2023-05-10T15:49:05;14.70;99.90
24252;DHT22;12380;51.118;4.176;2023-05-10T15:51:31;14.70;99.90
24252;DHT22;12380;51.118;4.176;2023-05-10T15:53:58;14.50;99.90
24252;DHT22;12380;51.118;4.176;2023-05-10T15:56:23;14.50;99.90
24252;DHT22;12380;51.118;4.176;2023-05-10T15:58:49;14.20;99.90
24252;DHT22;12380;51.118;4.176;2023-05-10T16:01:15;14.30;99.90
24252;DHT22;12380;51.118;4.176;2023-05-10T16:03:42;14.30;99.90
24252;DHT22;12380;51.118;4.176;2023-05-10T16:06:08;14.40;99.90
24252;DHT22;12380;51.118;4.176;2023-05-10T16:08:34;14.40;99.90
24252;DHT22;12380;51.118;4.176;2023-05-10T16:10:59;14.40;99.90
24252;DHT22;12380;51.118;4.176;2023-05-10T16:13:25;14.20;99.90